^^
Grace C. Lehan Memorial Weather Station Historical Data
Daily Summary for January 21, 2021 Units:  Metric    English   Both
Daily Weekly Monthly Yearly
  High: Low: Average:
Temperature: 24.2 °C 21.2 °C 22.2 °C
Dew Point: 22.3 °C 19.6 °C 20.2 °C
Humidity: 93% 84% 89%
Wind Speed: 0km/h 0km/h 0km/h
Wind Gust: 1.6km/h - -
Wind- -
Pressure: 1007.7 hPa 1006 hPa -
Precipitation: 0 mm    
 
 
Tabular Data for January 21, 2021
Time Temperature Dew Point Pressure Wind Wind Speed Wind Gust Humidity Rainfall Rate (Hourly) solar
00:09 23.4 °C 20.6 °C 1007.7 hPa Calm     84% 0 mm 0 W/m2
00:14 23.3 °C 20.5 °C 1007.7 hPa Calm     84% 0 mm 0 W/m2
00:19 23.3 °C 20.4 °C 1007.3 hPa Calm     84% 0 mm 0 W/m2
00:24 23.2 °C 20.4 °C 1007.3 hPa Calm     84% 0 mm 0 W/m2
00:29 23.2 °C 20.3 °C 1007.3 hPa Calm     84% 0 mm 0 W/m2
00:34 23.2 °C 20.3 °C 1007.3 hPa Calm     84% 0 mm 0 W/m2
00:39 23.1 °C 20.4 °C 1007 hPa Calm     84.9% 0 mm 0 W/m2
00:44 23.1 °C 20.4 °C 1007 hPa Calm     85% 0 mm 0 W/m2
00:49 23 °C 20.3 °C 1007 hPa Calm     85% 0 mm 0 W/m2
00:54 22.9 °C 20.3 °C 1007.3 hPa Calm     85% 0 mm 0 W/m2
00:59 22.9 °C 20.2 °C 1007 hPa Calm     85% 0 mm 0 W/m2
01:04 22.8 °C 20.2 °C 1007 hPa Calm     85% 0 mm 0 W/m2
01:09 22.8 °C 20.1 °C 1006.7 hPa Calm     85% 0 mm 0 W/m2
01:14 22.7 °C 20.1 °C 1006.7 hPa Calm     85% 0 mm 0 W/m2
01:19 22.7 °C 20 °C 1006.7 hPa Calm   1.6 km/h 85% 0 mm 0 W/m2
01:24 22.6 °C 19.9 °C 1006.7 hPa Calm   1.6 km/h 85% 0 mm 0 W/m2
01:29 22.6 °C 20.1 °C 1006.7 hPa Calm   1.6 km/h 85.6% 0 mm 0 W/m2
01:34 22.6 °C 20.1 °C 1006.7 hPa Calm   1.6 km/h 86% 0 mm 0 W/m2
01:39 22.6 °C 20.1 °C 1006.7 hPa Calm     86% 0 mm 0 W/m2
01:44 22.5 °C 20 °C 1006.7 hPa Calm     86% 0 mm 0 W/m2
01:49 22.4 °C 20 °C 1006.3 hPa Calm     86% 0 mm 0 W/m2
01:54 22.4 °C 19.9 °C 1006.3 hPa Calm     86% 0 mm 0 W/m2
01:59 22.3 °C 19.9 °C 1006.3 hPa Calm     86% 0 mm 0 W/m2
02:04 22.3 °C 19.8 °C 1006.3 hPa Calm     86% 0 mm 0 W/m2
02:09 22.2 °C 19.8 °C 1006.3 hPa Calm     86% 0 mm 0 W/m2
02:14 22.2 °C 19.7 °C 1006.3 hPa Calm     86% 0 mm 0 W/m2
02:19 22.2 °C 19.7 °C 1006.3 hPa Calm     86% 0 mm 0 W/m2
02:24 22.1 °C 19.7 °C 1006.3 hPa Calm     86% 0 mm 0 W/m2
02:29 22.1 °C 19.8 °C 1006.3 hPa Calm     86.9% 0 mm 0 W/m2
02:34 22.1 °C 19.8 °C 1006.3 hPa Calm     87% 0 mm 0 W/m2
02:39 22 °C 19.7 °C 1006.3 hPa Calm     87% 0 mm 0 W/m2
02:44 22 °C 19.7 °C 1006.3 hPa Calm     87% 0 mm 0 W/m2
02:49 21.9 °C 19.7 °C 1006 hPa Calm     87% 0 mm 0 W/m2
02:54 21.9 °C 19.7 °C 1006.3 hPa Calm     87% 0 mm 0 W/m2
02:59 21.9 °C 19.7 °C 1006.3 hPa Calm     87% 0 mm 0 W/m2
03:04 21.9 °C 19.7 °C 1006.3 hPa Calm     87% 0 mm 0 W/m2
03:09 21.9 °C 19.7 °C 1006.3 hPa Calm     87% 0 mm 0 W/m2
03:14 21.9 °C 19.7 °C 1006.3 hPa Calm     87% 0 mm 0 W/m2
03:19 21.9 °C 19.7 °C 1006.3 hPa Calm     87% 0 mm 0 W/m2
03:24 21.9 °C 19.7 °C 1006.3 hPa Calm     87% 0 mm 0 W/m2
03:29 21.9 °C 19.7 °C 1006.3 hPa Calm     87% 0 mm 0 W/m2
03:34 21.9 °C 19.7 °C 1006.3 hPa Calm     87.4% 0 mm 0 W/m2
03:39 21.8 °C 19.8 °C 1006.3 hPa Calm     88% 0 mm 0 W/m2
03:44 21.8 °C 19.8 °C 1006.3 hPa Calm     88% 0 mm 0 W/m2
03:49 21.8 °C 19.7 °C 1006.3 hPa Calm     88% 0 mm 0 W/m2
03:54 21.8 °C 19.7 °C 1006.3 hPa Calm     88% 0 mm 0 W/m2
03:59 21.7 °C 19.7 °C 1006.3 hPa Calm     88% 0 mm 0 W/m2
04:00 21.7 °C 19.7 °C 1006.3 hPa Calm     88% 0 mm 0 W/m2
04:09 21.7 °C 19.6 °C 1006.7 hPa Calm     88% 0 mm 0 W/m2
04:14 21.6 °C 19.6 °C 1006.7 hPa Calm     88% 0 mm 0 W/m2
04:19 21.6 °C 19.7 °C 1006.7 hPa Calm     88.8% 0 mm 0 W/m2
04:24 21.6 °C 19.7 °C 1006.7 hPa Calm     89% 0 mm 0 W/m2
04:29 21.6 °C 19.7 °C 1006.7 hPa Calm     89% 0 mm 0 W/m2
04:34 21.6 °C 19.7 °C 1006.3 hPa Calm     89% 0 mm 0 W/m2
04:39 21.6 °C 19.7 °C 1006.3 hPa Calm     89% 0 mm 0 W/m2
04:44 21.6 °C 19.7 °C 1006.3 hPa Calm     89.5% 0 mm 0 W/m2
04:49 21.6 °C 19.8 °C 1006.3 hPa Calm     90% 0 mm 0 W/m2
04:54 21.5 °C 19.8 °C 1006.3 hPa Calm     90% 0 mm 0 W/m2
04:59 21.5 °C 19.8 °C 1006.3 hPa Calm     90% 0 mm 0 W/m2
05:04 21.4 °C 19.7 °C 1006.3 hPa Calm     90% 0 mm 0 W/m2
05:09 21.4 °C 19.7 °C 1006.3 hPa Calm     90% 0 mm 0 W/m2
05:14 21.4 °C 19.7 °C 1006.3 hPa Calm     90% 0 mm 0 W/m2
05:19 21.3 °C 19.6 °C 1006.3 hPa Calm     90% 0 mm 0 W/m2
05:24 21.3 °C 19.6 °C 1006.3 hPa Calm     90% 0 mm 0 W/m2
05:29 21.3 °C 19.7 °C 1006.3 hPa Calm     90.7% 0 mm 5 W/m2
05:34 21.2 °C 19.7 °C 1006.3 hPa Calm     91% 0 mm 9 W/m2
05:39 21.2 °C 19.7 °C 1006.3 hPa Calm     91% 0 mm 11 W/m2
05:44 21.2 °C 19.7 °C 1006.3 hPa Calm     91% 0 mm 12 W/m2
05:49 21.2 °C 19.7 °C 1006.3 hPa Calm     91% 0 mm 16 W/m2
05:54 21.2 °C 19.9 °C 1006.3 hPa Calm     91.9% 0 mm 16 W/m2
05:59 21.3 °C 19.9 °C 1006.3 hPa Calm     92% 0 mm 21 W/m2
06:04 21.3 °C 19.9 °C 1006.3 hPa Calm     92% 0 mm 23 W/m2
06:09 21.3 °C 20 °C 1006.7 hPa Calm     92% 0 mm 26 W/m2
06:14 21.4 °C 20 °C 1006.7 hPa Calm     92% 0 mm 32 W/m2
06:19 21.4 °C 20.1 °C 1006.3 hPa Calm     92% 0 mm 32 W/m2
06:24 21.4 °C 20.1 °C 1006.3 hPa Calm     92.1% 0 mm 33 W/m2
06:29 21.5 °C 20.3 °C 1006.7 hPa Calm     93% 0 mm 35 W/m2
06:34 21.6 °C 20.4 °C 1006.7 hPa Calm     93% 0 mm 39 W/m2
06:39 21.6 °C 20.4 °C 1006.7 hPa Calm     93% 0 mm 35 W/m2
06:44 21.7 °C 20.5 °C 1006.7 hPa Calm     93% 0 mm 33 W/m2
06:49 21.7 °C 20.5 °C 1006.7 hPa Calm     93% 0 mm 33 W/m2
06:54 21.7 °C 20.4 °C 1006.7 hPa Calm     92.5% 0 mm 53 W/m2
06:59 21.8 °C 20.4 °C 1006.7 hPa Calm     92% 0 mm 53 W/m2
07:04 21.8 °C 20.6 °C 1006.7 hPa Calm     92.6% 0 mm 62 W/m2
07:09 21.8 °C 20.6 °C 1006.7 hPa Calm   1.6 km/h 92.3% 0 mm 69 W/m2
07:14 21.8 °C 20.7 °C 1006.7 hPa Calm   1.6 km/h 93% 0 mm 81 W/m2
07:19 21.9 °C 20.7 °C 1006.7 hPa Calm   1.6 km/h 93% 0 mm 90 W/m2
07:24 22 °C 20.8 °C 1006.7 hPa Calm   1.6 km/h 93% 0 mm 91 W/m2
07:29 22.1 °C 20.9 °C 1006.7 hPa Calm   1.6 km/h 93% 0 mm 72 W/m2
07:34 22.2 °C 21 °C 1006.7 hPa Calm   1.6 km/h 93% 0 mm 69 W/m2
07:39 22.3 °C 21.1 °C 1006.7 hPa Calm     93% 0 mm 97 W/m2
07:44 22.4 °C 21.2 °C 1006.7 hPa Calm     92.7% 0 mm 132 W/m2
07:49 22.5 °C 21.2 °C 1006.7 hPa Calm     92% 0 mm 118 W/m2
07:54 22.6 °C 21.2 °C 1006.3 hPa Calm     92% 0 mm 137 W/m2
07:59 22.7 °C 21.3 °C 1006.3 hPa Calm     92% 0 mm 114 W/m2
08:00 22.8 °C 21.4 °C 1006.3 hPa Calm     92% 0 mm 114 W/m2
08:09 22.9 °C 21.4 °C 1006.3 hPa Calm   1.6 km/h 91% 0 mm 141 W/m2
08:14 23.1 °C 21.5 °C 1006 hPa Calm   1.6 km/h 91% 0 mm 195 W/m2
08:19 23.2 °C 21.6 °C 1006 hPa Calm   1.6 km/h 91% 0 mm 200 W/m2
08:24 23.3 °C 21.6 °C 1006 hPa Calm   1.6 km/h 90.1% 0 mm 195 W/m2
08:29 23.4 °C 21.7 °C 1006 hPa Calm   1.6 km/h 90% 0 mm 188 W/m2
08:34 23.6 °C 21.8 °C 1006 hPa Calm   1.6 km/h 90% 0 mm 230 W/m2
08:39 23.8 °C 22 °C 1006 hPa Calm     89.7% 0 mm 271 W/m2
08:44 24.1 °C 22.2 °C 1006 hPa Calm     89.6% 0 mm 265 W/m2
08:48 24.2 °C 22.3 °C 1006 hPa Calm     88.7% 0 mm 265 W/m2
Hartford County Weather
Compliments of Weather Underground - 2 mb